sensor_id;sensor_type;location;lat;lon;timestamp;P1;durP1;ratioP1;P2;durP2;ratioP2
78995;SDS011;68401;47.192;-1.552;2023-04-03T00:01:25;5.43;;;2.97;;
78995;SDS011;68401;47.192;-1.552;2023-04-03T00:03:51;9.20;;;3.63;;
78995;SDS011;68401;47.192;-1.552;2023-04-03T00:06:17;10.05;;;3.13;;
78995;SDS011;68401;47.192;-1.552;2023-04-03T00:08:42;6.65;;;2.97;;
78995;SDS011;68401;47.192;-1.552;2023-04-03T00:11:08;8.77;;;3.38;;
78995;SDS011;68401;47.192;-1.552;2023-04-03T00:13:34;5.70;;;3.15;;
78995;SDS011;68401;47.192;-1.552;2023-04-03T00:16:00;6.70;;;3.55;;
78995;SDS011;68401;47.192;-1.552;2023-04-03T00:18:25;8.13;;;3.20;;
78995;SDS011;68401;47.192;-1.552;2023-04-03T00:20:51;7.32;;;2.80;;
78995;SDS011;68401;47.192;-1.552;2023-04-03T00:23:17;7.28;;;3.42;;
78995;SDS011;68401;47.192;-1.552;2023-04-03T00:25:42;8.80;;;3.38;;
78995;SDS011;68401;47.192;-1.552;2023-04-03T00:28:08;10.07;;;3.80;;
78995;SDS011;68401;47.192;-1.552;2023-04-03T00:30:34;8.52;;;3.80;;
78995;SDS011;68401;47.192;-1.552;2023-04-03T00:33:00;7.13;;;3.40;;
78995;SDS011;68401;47.192;-1.552;2023-04-03T00:35:25;6.95;;;4.38;;
78995;SDS011;68401;47.192;-1.552;2023-04-03T00:37:51;9.82;;;4.32;;
78995;SDS011;68401;47.192;-1.552;2023-04-03T00:40:18;5.43;;;3.38;;
78995;SDS011;68401;47.192;-1.552;2023-04-03T00:42:46;9.00;;;3.72;;
78995;SDS011;68401;47.192;-1.552;2023-04-03T00:47:40;7.60;;;3.95;;
78995;SDS011;68401;47.192;-1.552;2023-04-03T00:50:07;8.93;;;4.40;;
78995;SDS011;68401;47.192;-1.552;2023-04-03T00:52:32;12.90;;;4.30;;
78995;SDS011;68401;47.192;-1.552;2023-04-03T00:54:59;8.85;;;4.00;;
78995;SDS011;68401;47.192;-1.552;2023-04-03T00:57:28;9.63;;;4.47;;
78995;SDS011;68401;47.192;-1.552;2023-04-03T00:59:56;10.00;;;3.55;;
78995;SDS011;68401;47.192;-1.552;2023-04-03T01:02:24;6.68;;;3.92;;
78995;SDS011;68401;47.192;-1.552;2023-04-03T01:04:51;6.05;;;3.90;;
78995;SDS011;68401;47.192;-1.552;2023-04-03T01:07:17;9.80;;;4.72;;
78995;SDS011;68401;47.192;-1.552;2023-04-03T01:09:45;10.13;;;4.57;;
78995;SDS011;68401;47.192;-1.552;2023-04-03T01:12:19;9.63;;;3.88;;
78995;SDS011;68401;47.192;-1.552;2023-04-03T01:14:50;9.73;;;4.03;;
78995;SDS011;68401;47.192;-1.552;2023-04-03T01:22:56;10.82;;;4.63;;
78995;SDS011;68401;47.192;-1.552;2023-04-03T01:25:25;10.25;;;3.80;;
78995;SDS011;68401;47.192;-1.552;2023-04-03T01:27:51;9.05;;;3.65;;
78995;SDS011;68401;47.192;-1.552;2023-04-03T01:30:17;7.82;;;3.47;;
78995;SDS011;68401;47.192;-1.552;2023-04-03T01:32:43;9.77;;;4.72;;
78995;SDS011;68401;47.192;-1.552;2023-04-03T01:35:10;10.75;;;3.85;;
78995;SDS011;68401;47.192;-1.552;2023-04-03T01:37:35;7.60;;;4.00;;
78995;SDS011;68401;47.192;-1.552;2023-04-03T01:40:01;9.88;;;3.20;;
78995;SDS011;68401;47.192;-1.552;2023-04-03T01:42:28;11.43;;;3.92;;
78995;SDS011;68401;47.192;-1.552;2023-04-03T01:44:54;11.93;;;3.47;;
78995;SDS011;68401;47.192;-1.552;2023-04-03T01:47:20;9.32;;;3.33;;
78995;SDS011;68401;47.192;-1.552;2023-04-03T01:49:45;11.95;;;3.63;;
78995;SDS011;68401;47.192;-1.552;2023-04-03T01:52:11;7.93;;;3.05;;
78995;SDS011;68401;47.192;-1.552;2023-04-03T01:54:36;10.27;;;3.85;;
78995;SDS011;68401;47.192;-1.552;2023-04-03T01:57:02;12.00;;;3.20;;
78995;SDS011;68401;47.192;-1.552;2023-04-03T01:59:27;10.02;;;3.25;;
78995;SDS011;68401;47.192;-1.552;2023-04-03T02:01:53;8.30;;;2.83;;
78995;SDS011;68401;47.192;-1.552;2023-04-03T02:04:18;8.98;;;2.83;;
78995;SDS011;68401;47.192;-1.552;2023-04-03T02:06:44;6.85;;;2.90;;
78995;SDS011;68401;47.192;-1.552;2023-04-03T02:09:10;5.50;;;2.65;;
78995;SDS011;68401;47.192;-1.552;2023-04-03T02:11:35;14.00;;;4.50;;
78995;SDS011;68401;47.192;-1.552;2023-04-03T02:14:01;11.70;;;3.58;;
78995;SDS011;68401;47.192;-1.552;2023-04-03T02:16:26;9.57;;;3.53;;
78995;SDS011;68401;47.192;-1.552;2023-04-03T02:18:53;8.70;;;4.85;;
78995;SDS011;68401;47.192;-1.552;2023-04-03T02:21:19;11.88;;;2.75;;
78995;SDS011;68401;47.192;-1.552;2023-04-03T02:23:44;8.63;;;3.15;;
78995;SDS011;68401;47.192;-1.552;2023-04-03T02:26:11;7.65;;;3.08;;
78995;SDS011;68401;47.192;-1.552;2023-04-03T02:28:38;10.95;;;3.33;;
78995;SDS011;68401;47.192;-1.552;2023-04-03T02:31:04;12.05;;;4.40;;
78995;SDS011;68401;47.192;-1.552;2023-04-03T02:33:33;12.90;;;3.25;;
78995;SDS011;68401;47.192;-1.552;2023-04-03T02:36:01;9.75;;;3.17;;
78995;SDS011;68401;47.192;-1.552;2023-04-03T02:38:26;11.88;;;3.40;;
78995;SDS011;68401;47.192;-1.552;2023-04-03T02:40:52;10.93;;;4.03;;
78995;SDS011;68401;47.192;-1.552;2023-04-03T02:43:17;7.38;;;3.15;;
78995;SDS011;68401;47.192;-1.552;2023-04-03T02:45:43;7.53;;;3.35;;
78995;SDS011;68401;47.192;-1.552;2023-04-03T02:48:08;7.28;;;3.10;;
78995;SDS011;68401;47.192;-1.552;2023-04-03T02:50:34;10.63;;;3.60;;
78995;SDS011;68401;47.192;-1.552;2023-04-03T02:53:01;6.00;;;2.72;;
78995;SDS011;68401;47.192;-1.552;2023-04-03T02:55:26;8.95;;;3.83;;
78995;SDS011;68401;47.192;-1.552;2023-04-03T02:57:52;13.75;;;3.40;;
78995;SDS011;68401;47.192;-1.552;2023-04-03T03:00:17;8.45;;;3.30;;
78995;SDS011;68401;47.192;-1.552;2023-04-03T03:02:43;7.72;;;3.38;;
78995;SDS011;68401;47.192;-1.552;2023-04-03T03:05:08;7.10;;;3.10;;
78995;SDS011;68401;47.192;-1.552;2023-04-03T03:07:34;11.85;;;3.30;;
78995;SDS011;68401;47.192;-1.552;2023-04-03T03:09:59;10.43;;;3.53;;
78995;SDS011;68401;47.192;-1.552;2023-04-03T03:12:25;15.45;;;3.72;;
78995;SDS011;68401;47.192;-1.552;2023-04-03T03:14:50;14.50;;;3.38;;
78995;SDS011;68401;47.192;-1.552;2023-04-03T03:17:17;8.35;;;3.50;;
78995;SDS011;68401;47.192;-1.552;2023-04-03T03:19:43;7.63;;;3.33;;
78995;SDS011;68401;47.192;-1.552;2023-04-03T03:22:09;10.70;;;3.10;;
78995;SDS011;68401;47.192;-1.552;2023-04-03T03:24:34;12.02;;;4.93;;
78995;SDS011;68401;47.192;-1.552;2023-04-03T03:27:00;10.45;;;3.15;;
78995;SDS011;68401;47.192;-1.552;2023-04-03T03:29:25;7.07;;;2.67;;
78995;SDS011;68401;47.192;-1.552;2023-04-03T03:31:51;12.00;;;3.70;;
78995;SDS011;68401;47.192;-1.552;2023-04-03T03:34:16;13.60;;;3.63;;
78995;SDS011;68401;47.192;-1.552;2023-04-03T03:36:42;9.00;;;3.75;;
78995;SDS011;68401;47.192;-1.552;2023-04-03T03:39:07;10.07;;;2.65;;
78995;SDS011;68401;47.192;-1.552;2023-04-03T03:41:33;11.27;;;3.83;;
78995;SDS011;68401;47.192;-1.552;2023-04-03T03:43:58;11.48;;;4.32;;
78995;SDS011;68401;47.192;-1.552;2023-04-03T03:46:24;11.40;;;3.00;;
78995;SDS011;68401;47.192;-1.552;2023-04-03T03:48:49;11.15;;;3.83;;
78995;SDS011;68401;47.192;-1.552;2023-04-03T03:51:15;11.88;;;4.90;;
78995;SDS011;68401;47.192;-1.552;2023-04-03T03:53:40;12.20;;;4.72;;
78995;SDS011;68401;47.192;-1.552;2023-04-03T03:56:06;10.38;;;3.45;;
78995;SDS011;68401;47.192;-1.552;2023-04-03T03:58:31;11.43;;;3.97;;
78995;SDS011;68401;47.192;-1.552;2023-04-03T04:01:00;8.88;;;3.83;;
78995;SDS011;68401;47.192;-1.552;2023-04-03T04:03:26;14.73;;;3.53;;
78995;SDS011;68401;47.192;-1.552;2023-04-03T04:05:52;9.20;;;3.03;;
78995;SDS011;68401;47.192;-1.552;2023-04-03T04:08:17;9.60;;;3.00;;
78995;SDS011;68401;47.192;-1.552;2023-04-03T04:10:43;14.23;;;4.05;;
78995;SDS011;68401;47.192;-1.552;2023-04-03T04:13:08;11.40;;;3.67;;
78995;SDS011;68401;47.192;-1.552;2023-04-03T04:15:34;8.95;;;3.05;;
78995;SDS011;68401;47.192;-1.552;2023-04-03T04:17:59;10.05;;;3.67;;
78995;SDS011;68401;47.192;-1.552;2023-04-03T04:20:25;12.77;;;3.70;;
78995;SDS011;68401;47.192;-1.552;2023-04-03T04:22:50;11.77;;;4.20;;
78995;SDS011;68401;47.192;-1.552;2023-04-03T04:25:15;8.15;;;3.15;;
78995;SDS011;68401;47.192;-1.552;2023-04-03T04:27:41;12.45;;;3.78;;
78995;SDS011;68401;47.192;-1.552;2023-04-03T04:30:07;6.85;;;3.53;;
78995;SDS011;68401;47.192;-1.552;2023-04-03T04:32:33;12.25;;;4.38;;
78995;SDS011;68401;47.192;-1.552;2023-04-03T04:34:58;13.25;;;4.20;;
78995;SDS011;68401;47.192;-1.552;2023-04-03T04:37:24;9.88;;;3.92;;
78995;SDS011;68401;47.192;-1.552;2023-04-03T04:39:50;7.22;;;3.50;;
78995;SDS011;68401;47.192;-1.552;2023-04-03T04:42:15;13.48;;;3.70;;
78995;SDS011;68401;47.192;-1.552;2023-04-03T04:44:41;9.00;;;3.97;;
78995;SDS011;68401;47.192;-1.552;2023-04-03T04:47:07;9.82;;;4.20;;
78995;SDS011;68401;47.192;-1.552;2023-04-03T04:49:33;16.90;;;3.92;;
78995;SDS011;68401;47.192;-1.552;2023-04-03T04:51:58;12.60;;;4.53;;
78995;SDS011;68401;47.192;-1.552;2023-04-03T04:54:23;7.75;;;4.00;;
78995;SDS011;68401;47.192;-1.552;2023-04-03T04:56:49;7.00;;;3.47;;
78995;SDS011;68401;47.192;-1.552;2023-04-03T04:59:14;6.20;;;3.03;;
78995;SDS011;68401;47.192;-1.552;2023-04-03T05:01:40;12.65;;;4.43;;
78995;SDS011;68401;47.192;-1.552;2023-04-03T05:04:06;12.05;;;4.43;;
78995;SDS011;68401;47.192;-1.552;2023-04-03T05:06:31;7.05;;;3.83;;
78995;SDS011;68401;47.192;-1.552;2023-04-03T05:08:58;11.05;;;4.13;;
78995;SDS011;68401;47.192;-1.552;2023-04-03T05:11:23;16.95;;;4.88;;
78995;SDS011;68401;47.192;-1.552;2023-04-03T05:13:49;7.97;;;4.05;;
78995;SDS011;68401;47.192;-1.552;2023-04-03T05:16:15;11.23;;;4.55;;
78995;SDS011;68401;47.192;-1.552;2023-04-03T05:18:40;10.60;;;4.13;;
78995;SDS011;68401;47.192;-1.552;2023-04-03T05:21:05;9.63;;;4.20;;
78995;SDS011;68401;47.192;-1.552;2023-04-03T05:23:31;10.23;;;4.00;;
78995;SDS011;68401;47.192;-1.552;2023-04-03T05:25:56;7.07;;;4.05;;
78995;SDS011;68401;47.192;-1.552;2023-04-03T05:28:22;16.30;;;4.53;;
78995;SDS011;68401;47.192;-1.552;2023-04-03T05:30:54;10.75;;;4.20;;
78995;SDS011;68401;47.192;-1.552;2023-04-03T05:33:21;12.23;;;4.55;;
78995;SDS011;68401;47.192;-1.552;2023-04-03T05:35:46;8.95;;;4.60;;
78995;SDS011;68401;47.192;-1.552;2023-04-03T05:38:12;7.93;;;4.32;;
78995;SDS011;68401;47.192;-1.552;2023-04-03T05:40:37;13.52;;;5.28;;
78995;SDS011;68401;47.192;-1.552;2023-04-03T05:43:03;12.13;;;4.13;;
78995;SDS011;68401;47.192;-1.552;2023-04-03T05:45:28;11.30;;;4.38;;
78995;SDS011;68401;47.192;-1.552;2023-04-03T05:47:54;12.10;;;4.35;;
78995;SDS011;68401;47.192;-1.552;2023-04-03T05:50:20;11.32;;;4.60;;
78995;SDS011;68401;47.192;-1.552;2023-04-03T05:52:46;8.75;;;4.03;;
78995;SDS011;68401;47.192;-1.552;2023-04-03T05:55:14;12.35;;;5.03;;
78995;SDS011;68401;47.192;-1.552;2023-04-03T05:57:40;6.40;;;3.88;;
78995;SDS011;68401;47.192;-1.552;2023-04-03T06:00:06;13.43;;;4.47;;
78995;SDS011;68401;47.192;-1.552;2023-04-03T06:02:34;12.15;;;4.53;;
78995;SDS011;68401;47.192;-1.552;2023-04-03T06:05:00;7.05;;;4.00;;
78995;SDS011;68401;47.192;-1.552;2023-04-03T06:07:26;10.27;;;3.97;;
78995;SDS011;68401;47.192;-1.552;2023-04-03T06:09:53;16.25;;;4.18;;
78995;SDS011;68401;47.192;-1.552;2023-04-03T06:12:20;10.73;;;4.55;;
78995;SDS011;68401;47.192;-1.552;2023-04-03T06:14:46;15.45;;;4.90;;
78995;SDS011;68401;47.192;-1.552;2023-04-03T06:17:12;10.05;;;4.53;;
78995;SDS011;68401;47.192;-1.552;2023-04-03T06:19:38;10.45;;;4.20;;
78995;SDS011;68401;47.192;-1.552;2023-04-03T06:22:03;7.93;;;4.32;;
78995;SDS011;68401;47.192;-1.552;2023-04-03T06:24:29;12.20;;;5.18;;
78995;SDS011;68401;47.192;-1.552;2023-04-03T06:26:55;8.95;;;5.32;;
78995;SDS011;68401;47.192;-1.552;2023-04-03T06:29:21;11.30;;;4.95;;
78995;SDS011;68401;47.192;-1.552;2023-04-03T06:31:47;15.13;;;5.05;;
78995;SDS011;68401;47.192;-1.552;2023-04-03T06:34:13;11.20;;;4.30;;
78995;SDS011;68401;47.192;-1.552;2023-04-03T06:36:39;12.88;;;5.63;;
78995;SDS011;68401;47.192;-1.552;2023-04-03T06:39:06;8.98;;;4.57;;
78995;SDS011;68401;47.192;-1.552;2023-04-03T06:41:32;11.10;;;4.97;;
78995;SDS011;68401;47.192;-1.552;2023-04-03T06:43:58;10.52;;;5.40;;
78995;SDS011;68401;47.192;-1.552;2023-04-03T06:46:25;12.18;;;5.80;;
78995;SDS011;68401;47.192;-1.552;2023-04-03T06:48:51;8.00;;;5.07;;
78995;SDS011;68401;47.192;-1.552;2023-04-03T06:51:21;12.43;;;6.32;;
78995;SDS011;68401;47.192;-1.552;2023-04-03T06:53:48;8.07;;;5.93;;
78995;SDS011;68401;47.192;-1.552;2023-04-03T06:56:14;15.73;;;6.60;;
78995;SDS011;68401;47.192;-1.552;2023-04-03T06:58:41;14.43;;;5.28;;
78995;SDS011;68401;47.192;-1.552;2023-04-03T07:01:07;9.35;;;5.60;;
78995;SDS011;68401;47.192;-1.552;2023-04-03T07:03:35;11.75;;;6.53;;
78995;SDS011;68401;47.192;-1.552;2023-04-03T07:06:02;9.88;;;6.03;;
78995;SDS011;68401;47.192;-1.552;2023-04-03T07:08:28;10.68;;;6.05;;
78995;SDS011;68401;47.192;-1.552;2023-04-03T07:10:54;15.50;;;7.28;;
78995;SDS011;68401;47.192;-1.552;2023-04-03T07:13:19;9.85;;;6.43;;
78995;SDS011;68401;47.192;-1.552;2023-04-03T07:15:45;11.80;;;5.55;;
78995;SDS011;68401;47.192;-1.552;2023-04-03T07:18:10;12.10;;;6.65;;
78995;SDS011;68401;47.192;-1.552;2023-04-03T07:20:36;17.00;;;7.47;;
78995;SDS011;68401;47.192;-1.552;2023-04-03T07:23:01;10.95;;;6.93;;
78995;SDS011;68401;47.192;-1.552;2023-04-03T07:25:27;18.15;;;7.03;;
78995;SDS011;68401;47.192;-1.552;2023-04-03T07:27:53;13.38;;;6.65;;
78995;SDS011;68401;47.192;-1.552;2023-04-03T07:30:22;11.15;;;6.10;;
78995;SDS011;68401;47.192;-1.552;2023-04-03T07:32:48;10.02;;;5.50;;
78995;SDS011;68401;47.192;-1.552;2023-04-03T07:35:13;13.30;;;5.95;;
78995;SDS011;68401;47.192;-1.552;2023-04-03T07:37:39;10.35;;;5.57;;
78995;SDS011;68401;47.192;-1.552;2023-04-03T07:40:05;12.43;;;6.30;;
78995;SDS011;68401;47.192;-1.552;2023-04-03T07:42:31;10.73;;;6.70;;
78995;SDS011;68401;47.192;-1.552;2023-04-03T07:44:57;12.65;;;5.60;;
78995;SDS011;68401;47.192;-1.552;2023-04-03T07:47:22;8.75;;;5.90;;
78995;SDS011;68401;47.192;-1.552;2023-04-03T07:49:48;6.80;;;4.68;;
78995;SDS011;68401;47.192;-1.552;2023-04-03T07:52:13;9.07;;;5.80;;
78995;SDS011;68401;47.192;-1.552;2023-04-03T07:54:40;9.02;;;5.90;;
78995;SDS011;68401;47.192;-1.552;2023-04-03T07:57:06;13.43;;;6.38;;
78995;SDS011;68401;47.192;-1.552;2023-04-03T07:59:31;18.33;;;7.45;;
78995;SDS011;68401;47.192;-1.552;2023-04-03T08:01:57;9.02;;;5.28;;
78995;SDS011;68401;47.192;-1.552;2023-04-03T08:04:22;9.18;;;6.28;;
78995;SDS011;68401;47.192;-1.552;2023-04-03T08:06:48;9.15;;;7.00;;
78995;SDS011;68401;47.192;-1.552;2023-04-03T08:09:16;13.20;;;6.47;;
78995;SDS011;68401;47.192;-1.552;2023-04-03T08:11:42;10.40;;;6.53;;
78995;SDS011;68401;47.192;-1.552;2023-04-03T08:14:07;8.38;;;5.95;;
78995;SDS011;68401;47.192;-1.552;2023-04-03T08:16:33;9.27;;;5.30;;
78995;SDS011;68401;47.192;-1.552;2023-04-03T08:18:58;9.60;;;5.00;;
78995;SDS011;68401;47.192;-1.552;2023-04-03T08:21:24;9.95;;;5.18;;
78995;SDS011;68401;47.192;-1.552;2023-04-03T08:23:51;7.78;;;4.68;;
78995;SDS011;68401;47.192;-1.552;2023-04-03T08:26:17;9.27;;;5.40;;
78995;SDS011;68401;47.192;-1.552;2023-04-03T08:28:45;10.60;;;5.55;;
78995;SDS011;68401;47.192;-1.552;2023-04-03T08:31:13;8.65;;;5.43;;
78995;SDS011;68401;47.192;-1.552;2023-04-03T08:33:40;9.80;;;5.22;;
78995;SDS011;68401;47.192;-1.552;2023-04-03T08:36:07;7.95;;;5.00;;
78995;SDS011;68401;47.192;-1.552;2023-04-03T08:38:39;7.15;;;5.63;;
78995;SDS011;68401;47.192;-1.552;2023-04-03T08:50:02;7.47;;;4.63;;
78995;SDS011;68401;47.192;-1.552;2023-04-03T08:52:30;7.55;;;5.13;;
78995;SDS011;68401;47.192;-1.552;2023-04-03T08:55:00;7.43;;;5.00;;
78995;SDS011;68401;47.192;-1.552;2023-04-03T08:57:34;6.80;;;4.93;;
78995;SDS011;68401;47.192;-1.552;2023-04-03T09:00:05;8.55;;;5.35;;
78995;SDS011;68401;47.192;-1.552;2023-04-03T09:02:40;7.43;;;4.90;;
78995;SDS011;68401;47.192;-1.552;2023-04-03T09:05:18;7.68;;;4.85;;
78995;SDS011;68401;47.192;-1.552;2023-04-03T09:10:27;6.63;;;4.28;;
78995;SDS011;68401;47.192;-1.552;2023-04-03T09:12:57;6.43;;;4.80;;
78995;SDS011;68401;47.192;-1.552;2023-04-03T09:15:26;7.50;;;4.97;;
78995;SDS011;68401;47.192;-1.552;2023-04-03T09:17:59;8.07;;;4.45;;
78995;SDS011;68401;47.192;-1.552;2023-04-03T09:22:58;7.57;;;4.65;;
78995;SDS011;68401;47.192;-1.552;2023-04-03T09:25:25;7.90;;;4.68;;
78995;SDS011;68401;47.192;-1.552;2023-04-03T09:27:53;11.23;;;5.65;;
78995;SDS011;68401;47.192;-1.552;2023-04-03T09:30:22;8.98;;;4.88;;
78995;SDS011;68401;47.192;-1.552;2023-04-03T09:32:50;6.38;;;4.75;;
78995;SDS011;68401;47.192;-1.552;2023-04-03T09:40:35;6.75;;;4.28;;
78995;SDS011;68401;47.192;-1.552;2023-04-03T09:45:41;7.05;;;5.25;;
78995;SDS011;68401;47.192;-1.552;2023-04-03T09:50:32;7.43;;;4.55;;
78995;SDS011;68401;47.192;-1.552;2023-04-03T09:53:00;7.60;;;5.28;;
78995;SDS011;68401;47.192;-1.552;2023-04-03T09:55:31;6.95;;;4.75;;
78995;SDS011;68401;47.192;-1.552;2023-04-03T09:58:01;8.98;;;5.57;;
78995;SDS011;68401;47.192;-1.552;2023-04-03T10:00:33;6.72;;;5.07;;
78995;SDS011;68401;47.192;-1.552;2023-04-03T10:03:00;9.50;;;5.45;;
78995;SDS011;68401;47.192;-1.552;2023-04-03T10:05:28;9.00;;;5.85;;
78995;SDS011;68401;47.192;-1.552;2023-04-03T10:10:38;7.68;;;5.60;;
78995;SDS011;68401;47.192;-1.552;2023-04-03T10:13:28;8.35;;;5.40;;
78995;SDS011;68401;47.192;-1.552;2023-04-03T10:16:06;6.65;;;5.40;;
78995;SDS011;68401;47.192;-1.552;2023-04-03T10:24:02;8.63;;;5.70;;
78995;SDS011;68401;47.192;-1.552;2023-04-03T10:43:29;6.32;;;5.05;;
78995;SDS011;68401;47.192;-1.552;2023-04-03T10:48:42;7.10;;;5.10;;
78995;SDS011;68401;47.192;-1.552;2023-04-03T10:51:20;6.90;;;4.80;;
78995;SDS011;68401;47.192;-1.552;2023-04-03T10:53:56;8.25;;;5.95;;
78995;SDS011;68401;47.192;-1.552;2023-04-03T11:01:30;6.57;;;5.03;;
78995;SDS011;68401;47.192;-1.552;2023-04-03T11:03:59;8.05;;;5.40;;
78995;SDS011;68401;47.192;-1.552;2023-04-03T11:06:27;8.30;;;4.95;;
78995;SDS011;68401;47.192;-1.552;2023-04-03T11:09:03;7.63;;;5.18;;
78995;SDS011;68401;47.192;-1.552;2023-04-03T11:11:34;7.15;;;5.47;;
78995;SDS011;68401;47.192;-1.552;2023-04-03T11:16:29;7.68;;;5.28;;
78995;SDS011;68401;47.192;-1.552;2023-04-03T11:18:56;8.05;;;5.40;;
78995;SDS011;68401;47.192;-1.552;2023-04-03T11:21:28;8.00;;;5.60;;
78995;SDS011;68401;47.192;-1.552;2023-04-03T11:23:57;7.00;;;5.25;;
78995;SDS011;68401;47.192;-1.552;2023-04-03T11:26:27;7.47;;;5.38;;
78995;SDS011;68401;47.192;-1.552;2023-04-03T11:28:56;7.68;;;5.85;;
78995;SDS011;68401;47.192;-1.552;2023-04-03T11:36:38;9.02;;;5.82;;
78995;SDS011;68401;47.192;-1.552;2023-04-03T11:39:17;9.35;;;6.20;;
78995;SDS011;68401;47.192;-1.552;2023-04-03T11:41:43;11.05;;;6.68;;
78995;SDS011;68401;47.192;-1.552;2023-04-03T11:44:30;9.15;;;6.35;;
78995;SDS011;68401;47.192;-1.552;2023-04-03T11:47:07;9.57;;;7.22;;
78995;SDS011;68401;47.192;-1.552;2023-04-03T11:55:35;11.95;;;6.85;;
78995;SDS011;68401;47.192;-1.552;2023-04-03T12:05:57;9.20;;;6.07;;
78995;SDS011;68401;47.192;-1.552;2023-04-03T12:11:39;11.73;;;7.40;;
78995;SDS011;68401;47.192;-1.552;2023-04-03T12:29:20;12.00;;;6.50;;
78995;SDS011;68401;47.192;-1.552;2023-04-03T12:34:54;9.88;;;6.55;;
78995;SDS011;68401;47.192;-1.552;2023-04-03T12:45:56;9.68;;;5.97;;
78995;SDS011;68401;47.192;-1.552;2023-04-03T12:48:26;9.18;;;6.20;;
78995;SDS011;68401;47.192;-1.552;2023-04-03T12:50:52;9.40;;;6.47;;
78995;SDS011;68401;47.192;-1.552;2023-04-03T12:53:23;10.05;;;6.50;;
78995;SDS011;68401;47.192;-1.552;2023-04-03T12:55:54;8.90;;;6.45;;
78995;SDS011;68401;47.192;-1.552;2023-04-03T12:58:27;8.30;;;5.95;;
78995;SDS011;68401;47.192;-1.552;2023-04-03T13:03:25;8.27;;;5.95;;
78995;SDS011;68401;47.192;-1.552;2023-04-03T13:05:55;8.95;;;6.47;;
78995;SDS011;68401;47.192;-1.552;2023-04-03T13:08:24;9.93;;;6.60;;
78995;SDS011;68401;47.192;-1.552;2023-04-03T13:13:27;11.18;;;7.18;;
78995;SDS011;68401;47.192;-1.552;2023-04-03T13:15:53;9.30;;;5.82;;
78995;SDS011;68401;47.192;-1.552;2023-04-03T13:20:53;8.80;;;6.00;;
78995;SDS011;68401;47.192;-1.552;2023-04-03T13:23:23;9.43;;;6.63;;
78995;SDS011;68401;47.192;-1.552;2023-04-03T13:25:49;9.02;;;6.50;;
78995;SDS011;68401;47.192;-1.552;2023-04-03T13:28:18;8.15;;;5.93;;
78995;SDS011;68401;47.192;-1.552;2023-04-03T13:33:43;9.38;;;6.78;;
78995;SDS011;68401;47.192;-1.552;2023-04-03T13:36:21;8.43;;;6.78;;
78995;SDS011;68401;47.192;-1.552;2023-04-03T13:39:32;7.95;;;5.93;;
78995;SDS011;68401;47.192;-1.552;2023-04-03T13:42:03;10.30;;;6.15;;
78995;SDS011;68401;47.192;-1.552;2023-04-03T13:44:36;10.20;;;6.25;;
78995;SDS011;68401;47.192;-1.552;2023-04-03T13:49:39;9.65;;;6.35;;
78995;SDS011;68401;47.192;-1.552;2023-04-03T13:52:28;9.25;;;6.43;;
78995;SDS011;68401;47.192;-1.552;2023-04-03T13:55:24;8.48;;;5.60;;
78995;SDS011;68401;47.192;-1.552;2023-04-03T14:03:59;13.10;;;7.60;;
78995;SDS011;68401;47.192;-1.552;2023-04-03T14:06:11;18.90;;;10.52;;
78995;SDS011;68401;47.192;-1.552;2023-04-03T14:08:38;8.55;;;5.97;;
78995;SDS011;68401;47.192;-1.552;2023-04-03T14:11:04;9.73;;;5.97;;
78995;SDS011;68401;47.192;-1.552;2023-04-03T14:13:30;14.65;;;8.93;;
78995;SDS011;68401;47.192;-1.552;2023-04-03T14:15:56;13.15;;;7.15;;
78995;SDS011;68401;47.192;-1.552;2023-04-03T14:18:22;6.38;;;4.90;;
78995;SDS011;68401;47.192;-1.552;2023-04-03T14:20:47;15.52;;;8.63;;
78995;SDS011;68401;47.192;-1.552;2023-04-03T14:23:13;20.02;;;10.65;;
78995;SDS011;68401;47.192;-1.552;2023-04-03T14:25:39;7.55;;;5.28;;
78995;SDS011;68401;47.192;-1.552;2023-04-03T14:28:16;8.80;;;6.63;;
78995;SDS011;68401;47.192;-1.552;2023-04-03T14:30:46;5.85;;;4.60;;
78995;SDS011;68401;47.192;-1.552;2023-04-03T14:33:13;6.82;;;5.20;;
78995;SDS011;68401;47.192;-1.552;2023-04-03T14:35:40;5.82;;;4.75;;
78995;SDS011;68401;47.192;-1.552;2023-04-03T14:38:26;6.07;;;4.80;;
78995;SDS011;68401;47.192;-1.552;2023-04-03T14:40:53;5.97;;;4.50;;
78995;SDS011;68401;47.192;-1.552;2023-04-03T14:43:19;6.72;;;4.38;;
78995;SDS011;68401;47.192;-1.552;2023-04-03T14:45:45;6.65;;;4.93;;
78995;SDS011;68401;47.192;-1.552;2023-04-03T14:48:21;5.78;;;4.28;;
78995;SDS011;68401;47.192;-1.552;2023-04-03T14:50:49;7.10;;;4.65;;
78995;SDS011;68401;47.192;-1.552;2023-04-03T14:53:15;5.15;;;4.10;;
78995;SDS011;68401;47.192;-1.552;2023-04-03T14:55:42;5.85;;;4.55;;
78995;SDS011;68401;47.192;-1.552;2023-04-03T15:00:37;6.13;;;4.32;;
78995;SDS011;68401;47.192;-1.552;2023-04-03T15:03:02;5.53;;;4.15;;
78995;SDS011;68401;47.192;-1.552;2023-04-03T15:05:28;6.45;;;4.38;;
78995;SDS011;68401;47.192;-1.552;2023-04-03T15:07:54;7.05;;;4.72;;
78995;SDS011;68401;47.192;-1.552;2023-04-03T15:10:25;6.53;;;4.53;;
78995;SDS011;68401;47.192;-1.552;2023-04-03T15:12:52;5.97;;;4.78;;
78995;SDS011;68401;47.192;-1.552;2023-04-03T15:15:19;6.00;;;4.60;;
78995;SDS011;68401;47.192;-1.552;2023-04-03T15:17:46;4.47;;;3.83;;
78995;SDS011;68401;47.192;-1.552;2023-04-03T15:20:20;5.90;;;4.80;;
78995;SDS011;68401;47.192;-1.552;2023-04-03T15:22:48;6.30;;;4.90;;
78995;SDS011;68401;47.192;-1.552;2023-04-03T15:25:14;5.90;;;4.82;;
78995;SDS011;68401;47.192;-1.552;2023-04-03T15:27:40;6.00;;;4.30;;
78995;SDS011;68401;47.192;-1.552;2023-04-03T15:30:06;8.80;;;5.00;;
78995;SDS011;68401;47.192;-1.552;2023-04-03T15:32:33;5.93;;;4.40;;
78995;SDS011;68401;47.192;-1.552;2023-04-03T15:35:00;5.90;;;5.15;;
78995;SDS011;68401;47.192;-1.552;2023-04-03T15:37:26;5.53;;;4.53;;
78995;SDS011;68401;47.192;-1.552;2023-04-03T15:39:51;6.40;;;5.07;;
78995;SDS011;68401;47.192;-1.552;2023-04-03T15:42:17;5.75;;;4.80;;
78995;SDS011;68401;47.192;-1.552;2023-04-03T15:44:42;6.28;;;4.95;;
78995;SDS011;68401;47.192;-1.552;2023-04-03T15:47:08;5.53;;;4.00;;
78995;SDS011;68401;47.192;-1.552;2023-04-03T15:49:33;5.53;;;4.63;;
78995;SDS011;68401;47.192;-1.552;2023-04-03T15:51:59;5.68;;;4.38;;
78995;SDS011;68401;47.192;-1.552;2023-04-03T15:54:25;5.57;;;4.30;;
78995;SDS011;68401;47.192;-1.552;2023-04-03T15:56:51;5.55;;;4.43;;
78995;SDS011;68401;47.192;-1.552;2023-04-03T15:59:17;6.78;;;4.60;;
78995;SDS011;68401;47.192;-1.552;2023-04-03T16:01:42;5.10;;;4.40;;
78995;SDS011;68401;47.192;-1.552;2023-04-03T16:04:08;5.35;;;4.78;;
78995;SDS011;68401;47.192;-1.552;2023-04-03T16:06:33;5.43;;;3.80;;
78995;SDS011;68401;47.192;-1.552;2023-04-03T16:08:59;5.85;;;4.50;;
78995;SDS011;68401;47.192;-1.552;2023-04-03T16:11:25;5.90;;;4.13;;
78995;SDS011;68401;47.192;-1.552;2023-04-03T16:13:51;5.68;;;4.05;;
78995;SDS011;68401;47.192;-1.552;2023-04-03T16:16:17;6.55;;;4.35;;
78995;SDS011;68401;47.192;-1.552;2023-04-03T16:18:43;5.82;;;4.10;;
78995;SDS011;68401;47.192;-1.552;2023-04-03T16:21:08;5.82;;;4.30;;
78995;SDS011;68401;47.192;-1.552;2023-04-03T16:23:34;5.65;;;4.80;;
78995;SDS011;68401;47.192;-1.552;2023-04-03T16:26:00;5.53;;;3.95;;
78995;SDS011;68401;47.192;-1.552;2023-04-03T16:28:25;6.70;;;4.72;;
78995;SDS011;68401;47.192;-1.552;2023-04-03T16:30:50;5.60;;;4.55;;
78995;SDS011;68401;47.192;-1.552;2023-04-03T16:33:16;5.50;;;4.20;;
78995;SDS011;68401;47.192;-1.552;2023-04-03T16:35:41;6.60;;;4.85;;
78995;SDS011;68401;47.192;-1.552;2023-04-03T16:38:08;7.15;;;4.38;;
78995;SDS011;68401;47.192;-1.552;2023-04-03T16:40:33;4.95;;;4.10;;
78995;SDS011;68401;47.192;-1.552;2023-04-03T16:43:00;5.97;;;4.72;;
78995;SDS011;68401;47.192;-1.552;2023-04-03T16:45:26;6.35;;;5.05;;
78995;SDS011;68401;47.192;-1.552;2023-04-03T16:47:51;5.78;;;4.32;;
78995;SDS011;68401;47.192;-1.552;2023-04-03T16:50:17;5.35;;;4.10;;